Flight Track Log - Related Links

Times and Time Zones

All times are in EDT time to prevent confusion due to time zone crossing. See the N84CF flight status page for this flight to view local times or setup timezone preferences in your user account.

Time Position Orientation Groundspeed Altitude Reporting Facility
EDT Latitude Longitude Course Direction KTS MPH feet Rate Location/Type
Mon 06:14:11 PM 28.3000 -81.4333 360° North 126 145 500  Level Orlando TRACON
Mon 06:14:41 PM 28.3167 -81.4333 360° North 133 153 1,400 1,067 Climbing Orlando TRACON
Mon 06:15:41 PM 28.3500 -81.4833 307° West 177 204 2,100 1,150 Climbing Orlando TRACON
Mon 06:16:41 PM 28.3833 -81.5167 319° Northwest 163 188 3,700 1,400 Climbing Orlando TRACON
Mon 06:17:41 PM 28.4000 -81.5500 300° West 169 194 4,900 1,250 Climbing Orlando TRACON
Mon 06:18:41 PM 28.4333 -81.6000 307° West 164 189 6,200 1,250 Climbing Orlando TRACON
Mon 06:19:41 PM 28.4667 -81.6333 319° Northwest 165 190 7,400 1,091 Climbing Orlando TRACON
Mon 06:20:42 PM 28.5000 -81.6667 319° Northwest 181 208 8,400 1,050 Climbing Orlando TRACON
Mon 06:21:41 PM 28.5500 -81.7167 319° Northwest 180 207 9,500 1,010 Climbing Orlando TRACON
Mon 06:23:58 PM 28.6233 -81.8117 311° West 192 221 11,700 975 Climbing Jacksonville Center
Mon 06:24:58 PM 28.6447 -81.8683 293° West 192 221 12,700 1,100 Climbing Jacksonville Center
Mon 06:25:58 PM 28.6658 -81.9200 295° West 192 221 13,900 1,100 Climbing Jacksonville Center
Mon 06:26:58 PM 28.6767 -81.9792 282° West 187 215 14,900 850 Climbing Jacksonville Center
Mon 06:27:58 PM 28.6897 -82.0289 287° West 187 215 15,600 850 Climbing Jacksonville Center
Mon 06:28:58 PM 28.7047 -82.0878 286° West 187 215 16,600 900 Climbing Jacksonville Center
Mon 06:29:58 PM 28.7319 -82.1444 299° West 192 221 17,400 800 Climbing Jacksonville Center
Mon 06:30:58 PM 28.7594 -82.2011 299° West 197 227 18,200 850 Climbing Jacksonville Center
Mon 06:31:58 PM 28.7806 -82.2553 294° West 197 227 19,100 800 Climbing Jacksonville Center
Mon 06:32:58 PM 28.8061 -82.3097 298° West 197 227 19,800 800 Climbing Jacksonville Center
Mon 06:33:58 PM 28.8356 -82.3689 300° West 197 227 20,700 800 Climbing Jacksonville Center
Mon 06:34:58 PM 28.8586 -82.4256 295° West 197 227 21,400 650 Climbing Jacksonville Center
Mon 06:35:58 PM 28.8839 -82.4775 299° West 197 227 22,000 300 Climbing Jacksonville Center
Mon 06:36:58 PM 28.9069 -82.5414 292° West 197 227 22,000  Level Jacksonville Center
Mon 06:37:58 PM 28.9342 -82.6078 295° West 217 250 22,000  Level Jacksonville Center
Mon 06:38:58 PM 28.9617 -82.6742 295° West 222 255 22,000  Level Jacksonville Center
Mon 06:39:58 PM 28.9889 -82.7431 294° West 233 268 22,000  Level Jacksonville Center
Mon 06:40:58 PM 29.0203 -82.8072 299° West 233 268 22,000  Level Jacksonville Center
Mon 06:41:58 PM 29.0472 -82.8736 295° West 233 268 22,000  Level Jacksonville Center
Mon 06:42:58 PM 29.0744 -82.9400 295° West 238 274 22,000  Level Jacksonville Center
Mon 06:43:58 PM 29.1036 -83.0067 297° West 238 274 22,000  Level Jacksonville Center
Mon 06:44:58 PM 29.1308 -83.0733 295° West 238 274 22,000  Level Jacksonville Center
Mon 06:45:58 PM 29.1597 -83.1397 296° West 238 274 22,000  Level Jacksonville Center
Mon 06:46:58 PM 29.1867 -83.2042 296° West 238 274 22,000 50 Level Jacksonville Center
Mon 06:47:58 PM 29.2158 -83.2686 297° West 238 274 22,100  Climbing Jacksonville Center
Mon 06:48:58 PM 29.2469 -83.3306 300° West 233 268 22,000 -50 Descending Jacksonville Center
Mon 06:49:58 PM 29.2758 -83.3950 297° West 233 268 22,000  Level Jacksonville Center
Mon 06:50:58 PM 29.3069 -83.4594 299° West 233 268 22,000 50 Level Jacksonville Center
Mon 06:51:58 PM 29.3339 -83.5214 297° West 228 262 22,100  Climbing Jacksonville Center
Mon 06:52:58 PM 29.3606 -83.5858 295° West 223 257 22,000 -100 Descending Jacksonville Center
Mon 06:53:58 PM 29.3894 -83.6506 297° West 223 257 21,900  Descending Jacksonville Center
Mon 06:54:58 PM 29.4183 -83.7128 298° West 218 251 22,000 50 Climbing Jacksonville Center
Mon 06:55:58 PM 29.4472 -83.7772 297° West 218 251 22,000  Level Jacksonville Center
Mon 06:56:58 PM 29.4781 -83.8419 299° West 223 257 22,000  Level Jacksonville Center
Mon 06:57:58 PM 29.5067 -83.9044 298° West 223 257 22,000 -50 Level Jacksonville Center
Mon 06:58:58 PM 29.5356 -83.9667 298° West 223 257 21,900 -250 Descending Jacksonville Center
Mon 06:59:58 PM 29.5661 -84.0317 298° West 223 257 21,500 -450 Descending Jacksonville Center
Mon 07:00:58 PM 29.6011 -84.0964 302° West 223 257 21,000 -450 Descending Jacksonville Center
Mon 07:01:58 PM 29.6317 -84.1661 297° West 228 262 20,600 -450 Descending Jacksonville Center
Mon 07:02:58 PM 29.6667 -84.2358 300° West 233 268 20,100 -450 Descending Jacksonville Center
Mon 07:03:58 PM 29.6992 -84.3056 298° West 245 282 19,700 -400 Descending Jacksonville Center
Mon 07:04:58 PM 29.7317 -84.3756 298° West 250 288 19,300 -500 Descending Jacksonville Center
Mon 07:05:58 PM 29.7664 -84.4478 299° West 250 288 18,700 -600 Descending Jacksonville Center
Mon 07:06:58 PM 29.7989 -84.5178 298° West 250 288 18,100 -450 Descending Jacksonville Center
Mon 07:07:58 PM 29.8294 -84.5900 296° West 250 288 17,800 -500 Descending Jacksonville Center
Mon 07:08:58 PM 29.8639 -84.6650 298° West 250 288 17,100 -750 Descending Jacksonville Center
Mon 07:09:58 PM 29.8942 -84.7350 297° West 250 288 16,300 -700 Descending Jacksonville Center
Mon 07:10:58 PM 29.9286 -84.8075 299° West 250 288 15,700 -750 Descending Jacksonville Center
Mon 07:11:58 PM 29.9589 -84.8775 297° West 250 288 14,800 -850 Descending Jacksonville Center
Mon 07:12:58 PM 29.9931 -84.9525 298° West 255 293 14,000 -800 Descending Jacksonville Center
Mon 07:13:58 PM 30.0253 -85.0253 297° West 255 293 13,200 -800 Descending Jacksonville Center
Mon 07:14:58 PM 30.0597 -85.0956 300° West 260 299 12,400 -800 Descending Jacksonville Center
Mon 07:15:58 PM 30.0939 -85.1661 299° West 260 299 11,600 -700 Descending Jacksonville Center
Mon 07:16:58 PM 30.1303 -85.2367 301° West 255 293 11,000 -650 Descending Jacksonville Center
Mon 07:17:58 PM 30.1622 -85.3047 299° West 245 282 10,300 -750 Descending Jacksonville Center
Mon 07:18:58 PM 30.1925 -85.3678 299° West 245 282 9,500 -1,050 Descending Jacksonville Center
Mon 07:19:58 PM 30.2264 -85.4383 299° West 250 288 8,200 -1,350 Descending Jacksonville Center
Mon 07:20:58 PM 30.2606 -85.5114 298° West 250 288 6,800 -1,550 Descending Jacksonville Center
Mon 07:21:58 PM 30.2925 -85.5844 297° West 250 288 5,100 -1,700 Descending Jacksonville Center
Mon 07:22:58 PM 30.3222 -85.6575 295° West 255 293 3,400 -1,700 Descending Jacksonville Center
Mon 07:23:58 PM 30.3539 -85.7306 297° West 255 293 1,700 -1,150 Descending Jacksonville Center
Mon 07:24:58 PM 30.3842 -85.7797 306° West 233 268 1,100 -450 Descending Jacksonville Center
Mon 07:25:58 PM 30.4161 -85.8481 298° West 223 257 800 -300 Descending Jacksonville Center

Login

Don't have an account? Register now (free) for customized features, flight alerts, and more!